Carira, Brazil
Current Conditions -  °F | °C
As of 7:00 AM on Sunday 25 Jan 2015 (Local Time) from SBAR Reporting Station
Light Rain Light Rain  
Wind Chill: 79°   Ceiling: 10000
Heat Index: 82°   Visibility: 3mi
Dew Point: 73°   Wind: 5mph
Humidity: 83%   Direction: 110°ESE
Pressure: 29.94"   Gusts: NA
Location:  10.36°S, 37.69°W
Report Text: SBAR 251000Z 11004KT 5000 -RA SCT014 BKN100 26/23 Q1014
Loading
Personal Weather Stations






























Interactive Weather Map New forecast layout! Learn more

10-Day Weather Forecast

Advertisements
Track Severe Weather on mobile